sensor_id;sensor_type;location;lat;lon;timestamp;P1;durP1;ratioP1;P2;durP2;ratioP2
9524;SDS011;15940;48.734;9.112;2024-03-02T00:00:51;9.53;;;8.20;;
9524;SDS011;15940;48.734;9.112;2024-03-02T00:03:18;10.47;;;7.83;;
9524;SDS011;15940;48.734;9.112;2024-03-02T00:05:48;9.37;;;7.80;;
9524;SDS011;15940;48.734;9.112;2024-03-02T00:08:19;8.53;;;7.20;;
9524;SDS011;15940;48.734;9.112;2024-03-02T00:10:51;8.00;;;6.67;;
9524;SDS011;15940;48.734;9.112;2024-03-02T00:13:21;8.53;;;6.93;;
9524;SDS011;15940;48.734;9.112;2024-03-02T00:15:51;9.77;;;7.40;;
9524;SDS011;15940;48.734;9.112;2024-03-02T00:18:20;9.20;;;7.03;;
9524;SDS011;15940;48.734;9.112;2024-03-02T00:20:52;9.33;;;7.10;;
9524;SDS011;15940;48.734;9.112;2024-03-02T00:23:21;7.27;;;6.47;;
9524;SDS011;15940;48.734;9.112;2024-03-02T00:25:50;9.83;;;7.07;;
9524;SDS011;15940;48.734;9.112;2024-03-02T00:28:22;8.20;;;7.03;;
9524;SDS011;15940;48.734;9.112;2024-03-02T00:30:54;8.37;;;6.67;;
9524;SDS011;15940;48.734;9.112;2024-03-02T00:33:23;8.80;;;6.73;;
9524;SDS011;15940;48.734;9.112;2024-03-02T00:35:53;12.37;;;7.70;;
9524;SDS011;15940;48.734;9.112;2024-03-02T00:38:21;9.70;;;7.67;;
9524;SDS011;15940;48.734;9.112;2024-03-02T00:40:49;9.67;;;7.10;;
9524;SDS011;15940;48.734;9.112;2024-03-02T00:46:12;8.73;;;7.10;;
9524;SDS011;15940;48.734;9.112;2024-03-02T00:48:44;10.17;;;7.10;;
9524;SDS011;15940;48.734;9.112;2024-03-02T00:51:21;10.27;;;6.83;;
9524;SDS011;15940;48.734;9.112;2024-03-02T00:53:49;8.97;;;7.03;;
9524;SDS011;15940;48.734;9.112;2024-03-02T00:56:17;8.30;;;7.23;;
9524;SDS011;15940;48.734;9.112;2024-03-02T00:58:46;10.07;;;7.80;;
9524;SDS011;15940;48.734;9.112;2024-03-02T01:01:13;10.40;;;7.60;;
9524;SDS011;15940;48.734;9.112;2024-03-02T01:03:41;10.87;;;7.57;;
9524;SDS011;15940;48.734;9.112;2024-03-02T01:06:08;9.67;;;7.63;;
9524;SDS011;15940;48.734;9.112;2024-03-02T01:08:35;8.53;;;7.10;;
9524;SDS011;15940;48.734;9.112;2024-03-02T01:11:02;10.13;;;7.97;;
9524;SDS011;15940;48.734;9.112;2024-03-02T01:13:30;9.97;;;8.60;;
9524;SDS011;15940;48.734;9.112;2024-03-02T01:15:58;10.03;;;7.77;;
9524;SDS011;15940;48.734;9.112;2024-03-02T01:18:26;9.43;;;8.00;;
9524;SDS011;15940;48.734;9.112;2024-03-02T01:20:53;10.70;;;7.80;;
9524;SDS011;15940;48.734;9.112;2024-03-02T01:23:21;12.10;;;8.03;;
9524;SDS011;15940;48.734;9.112;2024-03-02T01:25:48;11.50;;;8.20;;
9524;SDS011;15940;48.734;9.112;2024-03-02T01:28:15;11.83;;;8.10;;
9524;SDS011;15940;48.734;9.112;2024-03-02T01:30:42;12.73;;;8.27;;
9524;SDS011;15940;48.734;9.112;2024-03-02T01:33:11;12.87;;;8.90;;
9524;SDS011;15940;48.734;9.112;2024-03-02T01:35:38;11.43;;;8.97;;
9524;SDS011;15940;48.734;9.112;2024-03-02T01:38:05;10.97;;;8.10;;
9524;SDS011;15940;48.734;9.112;2024-03-02T01:40:32;12.70;;;8.90;;
9524;SDS011;15940;48.734;9.112;2024-03-02T01:43:00;9.90;;;8.10;;
9524;SDS011;15940;48.734;9.112;2024-03-02T01:45:27;11.63;;;9.20;;
9524;SDS011;15940;48.734;9.112;2024-03-02T01:47:54;11.93;;;9.20;;
9524;SDS011;15940;48.734;9.112;2024-03-02T01:50:26;12.57;;;8.60;;
9524;SDS011;15940;48.734;9.112;2024-03-02T01:52:55;11.00;;;8.53;;
9524;SDS011;15940;48.734;9.112;2024-03-02T01:55:22;10.77;;;8.80;;
9524;SDS011;15940;48.734;9.112;2024-03-02T01:57:50;12.87;;;8.23;;
9524;SDS011;15940;48.734;9.112;2024-03-02T02:00:19;11.30;;;8.90;;
9524;SDS011;15940;48.734;9.112;2024-03-02T02:02:46;11.77;;;8.33;;
9524;SDS011;15940;48.734;9.112;2024-03-02T02:05:14;13.87;;;8.80;;
9524;SDS011;15940;48.734;9.112;2024-03-02T02:07:43;13.90;;;9.60;;
9524;SDS011;15940;48.734;9.112;2024-03-02T02:10:10;13.20;;;8.87;;
9524;SDS011;15940;48.734;9.112;2024-03-02T02:12:37;11.50;;;9.03;;
9524;SDS011;15940;48.734;9.112;2024-03-02T02:15:14;11.30;;;8.23;;
9524;SDS011;15940;48.734;9.112;2024-03-02T02:17:51;10.63;;;8.20;;
9524;SDS011;15940;48.734;9.112;2024-03-02T02:20:18;12.20;;;8.87;;
9524;SDS011;15940;48.734;9.112;2024-03-02T02:22:59;11.13;;;8.80;;
9524;SDS011;15940;48.734;9.112;2024-03-02T02:25:27;12.07;;;8.57;;
9524;SDS011;15940;48.734;9.112;2024-03-02T02:27:55;12.67;;;8.93;;
9524;SDS011;15940;48.734;9.112;2024-03-02T02:30:23;13.73;;;9.10;;
9524;SDS011;15940;48.734;9.112;2024-03-02T02:32:52;12.67;;;9.33;;
9524;SDS011;15940;48.734;9.112;2024-03-02T02:35:19;13.50;;;10.03;;
9524;SDS011;15940;48.734;9.112;2024-03-02T02:37:46;11.93;;;8.97;;
9524;SDS011;15940;48.734;9.112;2024-03-02T02:40:16;15.80;;;10.73;;
9524;SDS011;15940;48.734;9.112;2024-03-02T02:42:44;14.53;;;10.40;;
9524;SDS011;15940;48.734;9.112;2024-03-02T02:45:11;16.03;;;10.97;;
9524;SDS011;15940;48.734;9.112;2024-03-02T02:47:39;15.93;;;11.37;;
9524;SDS011;15940;48.734;9.112;2024-03-02T02:50:07;13.30;;;10.03;;
9524;SDS011;15940;48.734;9.112;2024-03-02T02:52:35;13.57;;;9.90;;
9524;SDS011;15940;48.734;9.112;2024-03-02T02:55:05;15.10;;;10.77;;
9524;SDS011;15940;48.734;9.112;2024-03-02T02:57:36;15.50;;;9.97;;
9524;SDS011;15940;48.734;9.112;2024-03-02T03:00:05;13.63;;;9.83;;
9524;SDS011;15940;48.734;9.112;2024-03-02T03:02:39;15.40;;;10.13;;
9524;SDS011;15940;48.734;9.112;2024-03-02T03:05:07;13.67;;;10.23;;
9524;SDS011;15940;48.734;9.112;2024-03-02T03:07:35;14.67;;;10.77;;
9524;SDS011;15940;48.734;9.112;2024-03-02T03:10:01;15.67;;;10.70;;
9524;SDS011;15940;48.734;9.112;2024-03-02T03:12:29;13.13;;;9.60;;
9524;SDS011;15940;48.734;9.112;2024-03-02T03:14:57;13.50;;;9.77;;
9524;SDS011;15940;48.734;9.112;2024-03-02T03:17:25;13.70;;;10.30;;
9524;SDS011;15940;48.734;9.112;2024-03-02T03:19:52;12.80;;;9.57;;
9524;SDS011;15940;48.734;9.112;2024-03-02T03:22:19;15.60;;;10.90;;
9524;SDS011;15940;48.734;9.112;2024-03-02T03:24:46;14.27;;;10.57;;
9524;SDS011;15940;48.734;9.112;2024-03-02T03:27:13;14.67;;;10.97;;
9524;SDS011;15940;48.734;9.112;2024-03-02T03:29:40;14.27;;;10.50;;
9524;SDS011;15940;48.734;9.112;2024-03-02T03:32:08;14.03;;;10.07;;
9524;SDS011;15940;48.734;9.112;2024-03-02T03:34:35;13.63;;;9.80;;
9524;SDS011;15940;48.734;9.112;2024-03-02T03:37:02;15.10;;;10.70;;
9524;SDS011;15940;48.734;9.112;2024-03-02T03:39:30;13.63;;;10.53;;
9524;SDS011;15940;48.734;9.112;2024-03-02T03:41:57;15.20;;;10.20;;
9524;SDS011;15940;48.734;9.112;2024-03-02T03:44:23;12.27;;;9.47;;
9524;SDS011;15940;48.734;9.112;2024-03-02T03:46:50;12.83;;;9.57;;
9524;SDS011;15940;48.734;9.112;2024-03-02T03:49:19;13.40;;;9.43;;
9524;SDS011;15940;48.734;9.112;2024-03-02T03:51:46;13.40;;;10.13;;
9524;SDS011;15940;48.734;9.112;2024-03-02T03:54:12;12.30;;;8.90;;
9524;SDS011;15940;48.734;9.112;2024-03-02T03:56:39;12.00;;;9.03;;
9524;SDS011;15940;48.734;9.112;2024-03-02T03:59:06;14.77;;;9.83;;
9524;SDS011;15940;48.734;9.112;2024-03-02T04:01:33;12.30;;;9.07;;
9524;SDS011;15940;48.734;9.112;2024-03-02T04:04:00;13.90;;;9.97;;
9524;SDS011;15940;48.734;9.112;2024-03-02T04:06:30;13.43;;;9.47;;
9524;SDS011;15940;48.734;9.112;2024-03-02T04:08:57;11.10;;;8.67;;
9524;SDS011;15940;48.734;9.112;2024-03-02T04:11:24;13.67;;;9.40;;
9524;SDS011;15940;48.734;9.112;2024-03-02T04:13:51;13.70;;;9.87;;
9524;SDS011;15940;48.734;9.112;2024-03-02T04:16:18;12.10;;;8.80;;
9524;SDS011;15940;48.734;9.112;2024-03-02T04:18:45;11.83;;;9.33;;
9524;SDS011;15940;48.734;9.112;2024-03-02T04:21:12;11.87;;;9.30;;
9524;SDS011;15940;48.734;9.112;2024-03-02T04:23:40;13.73;;;9.60;;
9524;SDS011;15940;48.734;9.112;2024-03-02T04:26:07;15.10;;;9.53;;
9524;SDS011;15940;48.734;9.112;2024-03-02T04:28:34;13.47;;;9.47;;
9524;SDS011;15940;48.734;9.112;2024-03-02T04:31:01;15.17;;;9.93;;
9524;SDS011;15940;48.734;9.112;2024-03-02T04:33:28;13.20;;;9.63;;
9524;SDS011;15940;48.734;9.112;2024-03-02T04:35:55;11.63;;;9.07;;
9524;SDS011;15940;48.734;9.112;2024-03-02T04:38:22;13.17;;;9.50;;
9524;SDS011;15940;48.734;9.112;2024-03-02T04:40:50;13.57;;;9.13;;
9524;SDS011;15940;48.734;9.112;2024-03-02T04:43:16;14.63;;;9.00;;
9524;SDS011;15940;48.734;9.112;2024-03-02T04:45:44;12.00;;;9.23;;
9524;SDS011;15940;48.734;9.112;2024-03-02T04:48:11;11.37;;;8.67;;
9524;SDS011;15940;48.734;9.112;2024-03-02T04:50:38;13.27;;;9.73;;
9524;SDS011;15940;48.734;9.112;2024-03-02T04:53:05;13.23;;;9.57;;
9524;SDS011;15940;48.734;9.112;2024-03-02T04:55:32;14.20;;;9.70;;
9524;SDS011;15940;48.734;9.112;2024-03-02T04:58:30;14.50;;;10.40;;
9524;SDS011;15940;48.734;9.112;2024-03-02T05:00:57;15.07;;;10.07;;
9524;SDS011;15940;48.734;9.112;2024-03-02T05:03:23;15.83;;;10.53;;
9524;SDS011;15940;48.734;9.112;2024-03-02T05:05:50;14.60;;;10.00;;
9524;SDS011;15940;48.734;9.112;2024-03-02T05:08:17;14.40;;;10.07;;
9524;SDS011;15940;48.734;9.112;2024-03-02T05:10:44;13.53;;;9.87;;
9524;SDS011;15940;48.734;9.112;2024-03-02T05:13:11;16.70;;;10.80;;
9524;SDS011;15940;48.734;9.112;2024-03-02T05:15:39;14.83;;;10.03;;
9524;SDS011;15940;48.734;9.112;2024-03-02T05:18:06;15.07;;;10.00;;
9524;SDS011;15940;48.734;9.112;2024-03-02T05:20:33;15.83;;;11.10;;
9524;SDS011;15940;48.734;9.112;2024-03-02T05:23:00;16.87;;;10.80;;
9524;SDS011;15940;48.734;9.112;2024-03-02T05:25:27;16.40;;;10.70;;
9524;SDS011;15940;48.734;9.112;2024-03-02T05:27:54;15.57;;;10.33;;
9524;SDS011;15940;48.734;9.112;2024-03-02T05:30:21;14.30;;;9.97;;
9524;SDS011;15940;48.734;9.112;2024-03-02T05:32:49;15.10;;;10.03;;
9524;SDS011;15940;48.734;9.112;2024-03-02T05:35:16;16.10;;;10.50;;
9524;SDS011;15940;48.734;9.112;2024-03-02T05:37:43;15.67;;;10.83;;
9524;SDS011;15940;48.734;9.112;2024-03-02T05:40:10;15.47;;;10.50;;
9524;SDS011;15940;48.734;9.112;2024-03-02T05:42:38;14.67;;;10.47;;
9524;SDS011;15940;48.734;9.112;2024-03-02T05:45:06;17.23;;;11.13;;
9524;SDS011;15940;48.734;9.112;2024-03-02T05:47:34;16.77;;;11.07;;
9524;SDS011;15940;48.734;9.112;2024-03-02T05:50:02;16.10;;;10.47;;
9524;SDS011;15940;48.734;9.112;2024-03-02T05:52:32;15.03;;;10.40;;
9524;SDS011;15940;48.734;9.112;2024-03-02T05:54:59;15.93;;;10.53;;
9524;SDS011;15940;48.734;9.112;2024-03-02T05:57:25;16.77;;;10.43;;
9524;SDS011;15940;48.734;9.112;2024-03-02T06:00:10;15.87;;;10.27;;
9524;SDS011;15940;48.734;9.112;2024-03-02T06:02:39;15.43;;;10.90;;
9524;SDS011;15940;48.734;9.112;2024-03-02T06:05:08;16.40;;;11.27;;
9524;SDS011;15940;48.734;9.112;2024-03-02T06:07:35;17.67;;;10.40;;
9524;SDS011;15940;48.734;9.112;2024-03-02T06:10:02;16.03;;;10.73;;
9524;SDS011;15940;48.734;9.112;2024-03-02T06:12:32;16.10;;;10.50;;
9524;SDS011;15940;48.734;9.112;2024-03-02T06:14:59;16.03;;;10.53;;
9524;SDS011;15940;48.734;9.112;2024-03-02T06:17:26;13.47;;;10.03;;
9524;SDS011;15940;48.734;9.112;2024-03-02T06:19:53;15.57;;;10.80;;
9524;SDS011;15940;48.734;9.112;2024-03-02T06:22:21;14.73;;;10.27;;
9524;SDS011;15940;48.734;9.112;2024-03-02T06:24:50;16.73;;;10.63;;
9524;SDS011;15940;48.734;9.112;2024-03-02T06:27:17;14.20;;;9.80;;
9524;SDS011;15940;48.734;9.112;2024-03-02T06:29:44;16.50;;;9.47;;
9524;SDS011;15940;48.734;9.112;2024-03-02T06:32:11;12.20;;;9.03;;
9524;SDS011;15940;48.734;9.112;2024-03-02T06:34:37;13.60;;;9.77;;
9524;SDS011;15940;48.734;9.112;2024-03-02T06:37:05;15.60;;;10.33;;
9524;SDS011;15940;48.734;9.112;2024-03-02T06:39:33;17.10;;;10.57;;
9524;SDS011;15940;48.734;9.112;2024-03-02T06:42:01;13.83;;;9.83;;
9524;SDS011;15940;48.734;9.112;2024-03-02T06:44:28;14.97;;;9.90;;
9524;SDS011;15940;48.734;9.112;2024-03-02T06:46:55;13.30;;;9.33;;
9524;SDS011;15940;48.734;9.112;2024-03-02T06:49:22;11.50;;;8.73;;
9524;SDS011;15940;48.734;9.112;2024-03-02T06:51:49;12.63;;;9.77;;
9524;SDS011;15940;48.734;9.112;2024-03-02T06:54:15;12.93;;;9.70;;
9524;SDS011;15940;48.734;9.112;2024-03-02T06:56:44;13.67;;;10.10;;
9524;SDS011;15940;48.734;9.112;2024-03-02T06:59:11;14.13;;;9.83;;
9524;SDS011;15940;48.734;9.112;2024-03-02T07:01:37;12.73;;;8.77;;
9524;SDS011;15940;48.734;9.112;2024-03-02T07:04:04;12.77;;;9.07;;
9524;SDS011;15940;48.734;9.112;2024-03-02T07:06:32;13.10;;;9.57;;
9524;SDS011;15940;48.734;9.112;2024-03-02T07:08:59;13.33;;;9.70;;
9524;SDS011;15940;48.734;9.112;2024-03-02T07:11:25;9.93;;;8.13;;
9524;SDS011;15940;48.734;9.112;2024-03-02T07:13:54;14.33;;;9.07;;
9524;SDS011;15940;48.734;9.112;2024-03-02T07:16:21;14.00;;;9.80;;
9524;SDS011;15940;48.734;9.112;2024-03-02T07:18:52;12.53;;;8.60;;
9524;SDS011;15940;48.734;9.112;2024-03-02T07:21:21;13.33;;;8.57;;
9524;SDS011;15940;48.734;9.112;2024-03-02T07:23:49;11.77;;;8.67;;
9524;SDS011;15940;48.734;9.112;2024-03-02T07:26:16;10.83;;;8.20;;
9524;SDS011;15940;48.734;9.112;2024-03-02T07:28:44;12.27;;;8.77;;
9524;SDS011;15940;48.734;9.112;2024-03-02T07:31:14;11.43;;;7.57;;
9524;SDS011;15940;48.734;9.112;2024-03-02T07:33:41;9.30;;;7.50;;
9524;SDS011;15940;48.734;9.112;2024-03-02T07:36:11;11.07;;;8.33;;
9524;SDS011;15940;48.734;9.112;2024-03-02T07:38:38;10.20;;;8.20;;
9524;SDS011;15940;48.734;9.112;2024-03-02T07:41:05;10.27;;;7.30;;
9524;SDS011;15940;48.734;9.112;2024-03-02T07:43:33;10.53;;;8.03;;
9524;SDS011;15940;48.734;9.112;2024-03-02T07:46:00;11.70;;;8.13;;
9524;SDS011;15940;48.734;9.112;2024-03-02T07:48:29;11.67;;;7.70;;
9524;SDS011;15940;48.734;9.112;2024-03-02T07:50:56;8.57;;;7.13;;
9524;SDS011;15940;48.734;9.112;2024-03-02T07:53:23;9.33;;;7.50;;
9524;SDS011;15940;48.734;9.112;2024-03-02T07:55:50;9.50;;;7.40;;
9524;SDS011;15940;48.734;9.112;2024-03-02T07:58:17;9.30;;;7.53;;
9524;SDS011;15940;48.734;9.112;2024-03-02T08:00:45;11.10;;;7.67;;
9524;SDS011;15940;48.734;9.112;2024-03-02T08:03:12;10.40;;;8.30;;
9524;SDS011;15940;48.734;9.112;2024-03-02T08:05:41;10.23;;;8.07;;
9524;SDS011;15940;48.734;9.112;2024-03-02T08:08:08;9.77;;;7.60;;
9524;SDS011;15940;48.734;9.112;2024-03-02T08:10:36;9.27;;;7.33;;
9524;SDS011;15940;48.734;9.112;2024-03-02T08:13:03;7.13;;;6.40;;
9524;SDS011;15940;48.734;9.112;2024-03-02T08:15:30;11.10;;;6.83;;
9524;SDS011;15940;48.734;9.112;2024-03-02T08:17:57;8.13;;;6.40;;
9524;SDS011;15940;48.734;9.112;2024-03-02T08:20:24;8.87;;;6.80;;
9524;SDS011;15940;48.734;9.112;2024-03-02T08:22:53;9.37;;;6.50;;
9524;SDS011;15940;48.734;9.112;2024-03-02T08:25:20;7.47;;;6.67;;
9524;SDS011;15940;48.734;9.112;2024-03-02T08:27:47;6.77;;;5.70;;
9524;SDS011;15940;48.734;9.112;2024-03-02T08:30:14;7.80;;;5.70;;
9524;SDS011;15940;48.734;9.112;2024-03-02T08:32:43;7.47;;;6.43;;
9524;SDS011;15940;48.734;9.112;2024-03-02T08:35:10;6.77;;;6.10;;
9524;SDS011;15940;48.734;9.112;2024-03-02T08:37:37;9.33;;;6.77;;
9524;SDS011;15940;48.734;9.112;2024-03-02T08:40:09;7.03;;;5.80;;
9524;SDS011;15940;48.734;9.112;2024-03-02T08:42:37;6.20;;;5.53;;
9524;SDS011;15940;48.734;9.112;2024-03-02T08:45:04;6.73;;;5.90;;
9524;SDS011;15940;48.734;9.112;2024-03-02T08:47:32;5.97;;;4.83;;
9524;SDS011;15940;48.734;9.112;2024-03-02T08:50:00;6.13;;;5.37;;
9524;SDS011;15940;48.734;9.112;2024-03-02T08:52:27;6.53;;;5.80;;
9524;SDS011;15940;48.734;9.112;2024-03-02T08:54:54;5.63;;;4.80;;
9524;SDS011;15940;48.734;9.112;2024-03-02T08:57:22;6.60;;;5.17;;
9524;SDS011;15940;48.734;9.112;2024-03-02T08:59:49;5.63;;;4.87;;
9524;SDS011;15940;48.734;9.112;2024-03-02T09:02:16;5.43;;;4.33;;
9524;SDS011;15940;48.734;9.112;2024-03-02T09:04:43;4.83;;;4.27;;
9524;SDS011;15940;48.734;9.112;2024-03-02T09:07:10;4.90;;;4.40;;
9524;SDS011;15940;48.734;9.112;2024-03-02T09:09:36;4.73;;;3.93;;
9524;SDS011;15940;48.734;9.112;2024-03-02T09:12:04;4.33;;;3.93;;
9524;SDS011;15940;48.734;9.112;2024-03-02T09:14:33;4.60;;;4.20;;
9524;SDS011;15940;48.734;9.112;2024-03-02T09:17:02;5.17;;;4.37;;
9524;SDS011;15940;48.734;9.112;2024-03-02T09:19:29;5.17;;;4.47;;
9524;SDS011;15940;48.734;9.112;2024-03-02T09:21:56;5.13;;;4.43;;
9524;SDS011;15940;48.734;9.112;2024-03-02T09:24:23;5.47;;;4.77;;
9524;SDS011;15940;48.734;9.112;2024-03-02T09:26:50;4.70;;;4.30;;
9524;SDS011;15940;48.734;9.112;2024-03-02T09:29:17;4.80;;;4.23;;
9524;SDS011;15940;48.734;9.112;2024-03-02T09:31:47;4.50;;;3.80;;
9524;SDS011;15940;48.734;9.112;2024-03-02T09:34:14;4.30;;;3.90;;
9524;SDS011;15940;48.734;9.112;2024-03-02T09:36:41;4.23;;;3.60;;
9524;SDS011;15940;48.734;9.112;2024-03-02T09:39:08;4.20;;;3.80;;
9524;SDS011;15940;48.734;9.112;2024-03-02T09:41:36;3.43;;;3.13;;
9524;SDS011;15940;48.734;9.112;2024-03-02T09:44:03;5.03;;;3.40;;
9524;SDS011;15940;48.734;9.112;2024-03-02T09:46:31;3.77;;;3.47;;
9524;SDS011;15940;48.734;9.112;2024-03-02T09:49:00;3.20;;;3.00;;
9524;SDS011;15940;48.734;9.112;2024-03-02T09:51:27;4.10;;;3.63;;
9524;SDS011;15940;48.734;9.112;2024-03-02T09:53:54;3.20;;;3.00;;
9524;SDS011;15940;48.734;9.112;2024-03-02T09:56:21;3.47;;;3.13;;
9524;SDS011;15940;48.734;9.112;2024-03-02T09:58:48;3.83;;;3.00;;
9524;SDS011;15940;48.734;9.112;2024-03-02T10:01:15;3.20;;;2.90;;
9524;SDS011;15940;48.734;9.112;2024-03-02T10:03:42;3.50;;;3.20;;
9524;SDS011;15940;48.734;9.112;2024-03-02T10:06:23;3.23;;;2.90;;
9524;SDS011;15940;48.734;9.112;2024-03-02T10:08:52;2.80;;;2.60;;
9524;SDS011;15940;48.734;9.112;2024-03-02T10:11:26;2.67;;;2.47;;
9524;SDS011;15940;48.734;9.112;2024-03-02T10:14:05;4.50;;;2.43;;
9524;SDS011;15940;48.734;9.112;2024-03-02T10:16:34;2.00;;;1.90;;
9524;SDS011;15940;48.734;9.112;2024-03-02T10:19:17;2.30;;;2.10;;
9524;SDS011;15940;48.734;9.112;2024-03-02T10:21:47;2.20;;;2.00;;
9524;SDS011;15940;48.734;9.112;2024-03-02T10:24:16;1.83;;;1.73;;
9524;SDS011;15940;48.734;9.112;2024-03-02T10:26:43;1.70;;;1.60;;
9524;SDS011;15940;48.734;9.112;2024-03-02T10:29:10;1.83;;;1.73;;
9524;SDS011;15940;48.734;9.112;2024-03-02T10:31:38;1.80;;;1.70;;
9524;SDS011;15940;48.734;9.112;2024-03-02T10:34:05;1.90;;;1.80;;
9524;SDS011;15940;48.734;9.112;2024-03-02T10:36:33;1.83;;;1.70;;
9524;SDS011;15940;48.734;9.112;2024-03-02T10:39:03;1.70;;;1.60;;
9524;SDS011;15940;48.734;9.112;2024-03-02T10:41:32;1.67;;;1.57;;
9524;SDS011;15940;48.734;9.112;2024-03-02T10:44:01;1.60;;;1.50;;
9524;SDS011;15940;48.734;9.112;2024-03-02T10:46:30;1.77;;;1.67;;
9524;SDS011;15940;48.734;9.112;2024-03-02T10:49:00;1.50;;;1.40;;
9524;SDS011;15940;48.734;9.112;2024-03-02T10:51:29;1.70;;;1.60;;
9524;SDS011;15940;48.734;9.112;2024-03-02T10:53:58;4.63;;;1.97;;
9524;SDS011;15940;48.734;9.112;2024-03-02T10:56:28;2.47;;;2.10;;
9524;SDS011;15940;48.734;9.112;2024-03-02T10:59:01;2.03;;;1.93;;
9524;SDS011;15940;48.734;9.112;2024-03-02T11:01:32;2.03;;;1.93;;
9524;SDS011;15940;48.734;9.112;2024-03-02T11:04:00;2.13;;;2.03;;
9524;SDS011;15940;48.734;9.112;2024-03-02T11:06:30;2.37;;;2.17;;
9524;SDS011;15940;48.734;9.112;2024-03-02T11:09:00;2.23;;;2.03;;
9524;SDS011;15940;48.734;9.112;2024-03-02T11:11:36;1.90;;;1.80;;
9524;SDS011;15940;48.734;9.112;2024-03-02T11:14:10;2.37;;;2.17;;
9524;SDS011;15940;48.734;9.112;2024-03-02T11:16:40;3.30;;;2.30;;
9524;SDS011;15940;48.734;9.112;2024-03-02T11:19:07;2.00;;;1.80;;
9524;SDS011;15940;48.734;9.112;2024-03-02T11:21:37;1.80;;;1.70;;
9524;SDS011;15940;48.734;9.112;2024-03-02T11:27:00;1.70;;;1.60;;
9524;SDS011;15940;48.734;9.112;2024-03-02T11:29:46;1.93;;;1.83;;
9524;SDS011;15940;48.734;9.112;2024-03-02T11:32:17;1.83;;;1.47;;
9524;SDS011;15940;48.734;9.112;2024-03-02T11:34:48;1.80;;;1.70;;
9524;SDS011;15940;48.734;9.112;2024-03-02T11:37:16;1.80;;;1.53;;
9524;SDS011;15940;48.734;9.112;2024-03-02T11:39:45;1.80;;;1.70;;
9524;SDS011;15940;48.734;9.112;2024-03-02T11:42:16;2.03;;;1.70;;
9524;SDS011;15940;48.734;9.112;2024-03-02T11:44:44;2.23;;;2.03;;
9524;SDS011;15940;48.734;9.112;2024-03-02T11:47:14;1.80;;;1.70;;
9524;SDS011;15940;48.734;9.112;2024-03-02T11:49:43;1.33;;;1.23;;
9524;SDS011;15940;48.734;9.112;2024-03-02T11:52:12;1.70;;;1.60;;
9524;SDS011;15940;48.734;9.112;2024-03-02T11:54:42;1.70;;;1.60;;
9524;SDS011;15940;48.734;9.112;2024-03-02T11:57:13;1.70;;;1.60;;
9524;SDS011;15940;48.734;9.112;2024-03-02T11:59:43;2.50;;;1.90;;
9524;SDS011;15940;48.734;9.112;2024-03-02T12:02:17;2.83;;;1.67;;
9524;SDS011;15940;48.734;9.112;2024-03-02T12:04:45;2.20;;;1.47;;
9524;SDS011;15940;48.734;9.112;2024-03-02T12:07:18;2.47;;;1.67;;
9524;SDS011;15940;48.734;9.112;2024-03-02T12:09:47;1.60;;;1.50;;
9524;SDS011;15940;48.734;9.112;2024-03-02T12:12:14;1.40;;;1.30;;
9524;SDS011;15940;48.734;9.112;2024-03-02T12:14:50;2.93;;;1.33;;
9524;SDS011;15940;48.734;9.112;2024-03-02T12:17:20;1.40;;;1.30;;
9524;SDS011;15940;48.734;9.112;2024-03-02T12:19:48;1.30;;;1.30;;
9524;SDS011;15940;48.734;9.112;2024-03-02T12:22:15;2.20;;;1.40;;
9524;SDS011;15940;48.734;9.112;2024-03-02T12:24:42;1.50;;;1.40;;
9524;SDS011;15940;48.734;9.112;2024-03-02T12:27:10;1.40;;;1.30;;
9524;SDS011;15940;48.734;9.112;2024-03-02T12:29:38;1.50;;;1.40;;
9524;SDS011;15940;48.734;9.112;2024-03-02T12:32:07;1.37;;;1.27;;
9524;SDS011;15940;48.734;9.112;2024-03-02T12:34:34;1.40;;;1.30;;
9524;SDS011;15940;48.734;9.112;2024-03-02T12:37:01;1.50;;;1.30;;
9524;SDS011;15940;48.734;9.112;2024-03-02T12:39:28;1.73;;;1.63;;
9524;SDS011;15940;48.734;9.112;2024-03-02T12:41:57;1.43;;;1.33;;
9524;SDS011;15940;48.734;9.112;2024-03-02T12:44:24;1.50;;;1.40;;
9524;SDS011;15940;48.734;9.112;2024-03-02T12:46:51;3.40;;;1.67;;
9524;SDS011;15940;48.734;9.112;2024-03-02T12:49:21;1.60;;;1.40;;
9524;SDS011;15940;48.734;9.112;2024-03-02T12:51:48;2.67;;;1.30;;
9524;SDS011;15940;48.734;9.112;2024-03-02T12:54:18;3.10;;;1.33;;
9524;SDS011;15940;48.734;9.112;2024-03-02T12:56:49;1.50;;;1.40;;
9524;SDS011;15940;48.734;9.112;2024-03-02T12:59:19;1.97;;;1.27;;
9524;SDS011;15940;48.734;9.112;2024-03-02T13:01:51;1.70;;;1.60;;
9524;SDS011;15940;48.734;9.112;2024-03-02T13:04:23;2.03;;;1.50;;
9524;SDS011;15940;48.734;9.112;2024-03-02T13:06:51;1.70;;;1.57;;
9524;SDS011;15940;48.734;9.112;2024-03-02T13:09:18;2.23;;;1.40;;
9524;SDS011;15940;48.734;9.112;2024-03-02T13:11:45;1.80;;;1.70;;
9524;SDS011;15940;48.734;9.112;2024-03-02T13:14:13;1.77;;;1.67;;
9524;SDS011;15940;48.734;9.112;2024-03-02T13:16:40;3.10;;;2.03;;
9524;SDS011;15940;48.734;9.112;2024-03-02T13:19:07;2.23;;;1.47;;
9524;SDS011;15940;48.734;9.112;2024-03-02T13:21:35;1.60;;;1.50;;
9524;SDS011;15940;48.734;9.112;2024-03-02T13:24:02;2.00;;;1.90;;
9524;SDS011;15940;48.734;9.112;2024-03-02T13:26:30;3.37;;;1.60;;
9524;SDS011;15940;48.734;9.112;2024-03-02T13:28:58;1.60;;;1.50;;
9524;SDS011;15940;48.734;9.112;2024-03-02T13:31:25;3.83;;;1.70;;
9524;SDS011;15940;48.734;9.112;2024-03-02T13:33:51;1.73;;;1.53;;
9524;SDS011;15940;48.734;9.112;2024-03-02T13:36:18;1.83;;;1.67;;
9524;SDS011;15940;48.734;9.112;2024-03-02T13:38:46;1.93;;;1.70;;
9524;SDS011;15940;48.734;9.112;2024-03-02T13:41:13;1.30;;;1.30;;
9524;SDS011;15940;48.734;9.112;2024-03-02T13:43:40;1.60;;;1.50;;
9524;SDS011;15940;48.734;9.112;2024-03-02T13:46:09;2.10;;;2.00;;
9524;SDS011;15940;48.734;9.112;2024-03-02T13:48:36;2.10;;;1.90;;
9524;SDS011;15940;48.734;9.112;2024-03-02T13:51:04;1.70;;;1.60;;
9524;SDS011;15940;48.734;9.112;2024-03-02T13:53:31;1.70;;;1.60;;
9524;SDS011;15940;48.734;9.112;2024-03-02T13:55:59;1.80;;;1.50;;
9524;SDS011;15940;48.734;9.112;2024-03-02T13:58:26;1.30;;;1.30;;
9524;SDS011;15940;48.734;9.112;2024-03-02T14:00:53;1.70;;;1.60;;
9524;SDS011;15940;48.734;9.112;2024-03-02T14:03:21;1.50;;;1.40;;
9524;SDS011;15940;48.734;9.112;2024-03-02T14:05:48;1.73;;;1.40;;
9524;SDS011;15940;48.734;9.112;2024-03-02T14:08:17;4.07;;;1.90;;
9524;SDS011;15940;48.734;9.112;2024-03-02T14:10:44;1.60;;;1.50;;
9524;SDS011;15940;48.734;9.112;2024-03-02T14:13:13;1.50;;;1.40;;
9524;SDS011;15940;48.734;9.112;2024-03-02T14:15:40;27.53;;;16.07;;
9524;SDS011;15940;48.734;9.112;2024-03-02T14:18:07;4.20;;;2.23;;
9524;SDS011;15940;48.734;9.112;2024-03-02T14:20:35;1.83;;;1.60;;
9524;SDS011;15940;48.734;9.112;2024-03-02T14:23:03;1.93;;;1.73;;
9524;SDS011;15940;48.734;9.112;2024-03-02T14:25:30;1.30;;;1.20;;
9524;SDS011;15940;48.734;9.112;2024-03-02T14:27:58;1.57;;;1.47;;
9524;SDS011;15940;48.734;9.112;2024-03-02T14:30:27;1.90;;;1.40;;
9524;SDS011;15940;48.734;9.112;2024-03-02T14:32:54;1.00;;;1.00;;
9524;SDS011;15940;48.734;9.112;2024-03-02T14:35:20;1.13;;;1.10;;
9524;SDS011;15940;48.734;9.112;2024-03-02T14:37:47;1.13;;;1.07;;
9524;SDS011;15940;48.734;9.112;2024-03-02T14:40:14;1.37;;;1.27;;
9524;SDS011;15940;48.734;9.112;2024-03-02T14:42:41;1.27;;;1.23;;
9524;SDS011;15940;48.734;9.112;2024-03-02T14:45:12;1.10;;;1.10;;
9524;SDS011;15940;48.734;9.112;2024-03-02T14:47:40;1.20;;;1.10;;
9524;SDS011;15940;48.734;9.112;2024-03-02T14:50:08;1.10;;;1.10;;
9524;SDS011;15940;48.734;9.112;2024-03-02T14:52:35;1.53;;;1.27;;
9524;SDS011;15940;48.734;9.112;2024-03-02T14:55:04;1.23;;;1.13;;
9524;SDS011;15940;48.734;9.112;2024-03-02T14:57:33;2.13;;;1.40;;
9524;SDS011;15940;48.734;9.112;2024-03-02T15:00:00;2.77;;;1.80;;
9524;SDS011;15940;48.734;9.112;2024-03-02T15:02:26;1.10;;;0.97;;
9524;SDS011;15940;48.734;9.112;2024-03-02T15:04:56;2.30;;;1.30;;